»·PEaware :: N149CD KMYF-KIFP

N149CD :: KMYF-KIFP

FLIGHT INFORMATION

Flight Status: Arrived
Operator: Privately registered:
United States
More flights under this callsign
Pilot: Nathan E. (30132)
Aircraft: CIRRUS VISIONJET
(SF50)
More flights by this aircraft type
Origin: KMYF Montgomery
United States
Destination: KIFP Laughlin/Bullhead Intl
United States
More flights between these airports :: More routes between these airports
Route: MZB JLI V514 ZELMA
File this flight plan on PilotEdge
Remarks:
Altitude:
(Current/Filed)
21,000ft
Speed:
(Current/Filed)
300kts
Departed: 18-Dec-20 03:48 PM
Arrived: 18-Dec-20 04:45 PM
Distance/Time
Traveled:
190nm/0:57
Distance/Time
To Go:
Arrived

Flight Plot

Page will automatically refresh every two minutes.

Flight plan parsing failed; only flown route is shown


Map Options




Map Legend


Flown Route
Filed Route
Departure Airport
Arrival Airport
Navaid (VOR, NDB)
Fix

Horizontal Profiles

Position Reports

Time Latitude Longitude Heading Altitude Ground
Speed
18-Dec-20 15:25 32.813422 -117.141510 22 415ft 0kts
18-Dec-20 15:26 32.813422 -117.141510 22 415ft 0kts
18-Dec-20 15:27 32.813422 -117.141510 22 415ft 0kts
18-Dec-20 15:28 32.813422 -117.141510 22 415ft 0kts
18-Dec-20 15:29 32.813422 -117.141510 22 415ft 0kts
18-Dec-20 15:30 32.813422 -117.141510 22 415ft 0kts
18-Dec-20 15:31 32.813422 -117.141510 22 415ft 0kts
18-Dec-20 15:32 32.813422 -117.141510 22 415ft 0kts
18-Dec-20 15:33 32.813422 -117.141510 22 415ft 0kts
18-Dec-20 15:34 32.813422 -117.141510 22 415ft 0kts
18-Dec-20 15:35 32.813422 -117.141510 22 415ft 0kts
18-Dec-20 15:36 32.813422 -117.141510 22 415ft 0kts
18-Dec-20 15:37 32.813422 -117.141510 22 415ft 0kts
18-Dec-20 15:38 32.813422 -117.141510 22 415ft 0kts
18-Dec-20 15:39 32.813422 -117.141510 22 415ft 0kts
18-Dec-20 15:40 32.813422 -117.141510 22 415ft 0kts
18-Dec-20 15:41 32.813436 -117.141502 31 415ft 0kts
18-Dec-20 15:42 32.813870 -117.139526 115 419ft 15kts
18-Dec-20 15:43 32.812231 -117.135360 115 419ft 11kts
18-Dec-20 15:44 32.811773 -117.131440 80 422ft 10kts
18-Dec-20 15:45 32.812005 -117.131207 352 423ft 0kts
18-Dec-20 15:46 32.812024 -117.131210 352 423ft 2kts
18-Dec-20 15:47 32.818289 -117.145071 298 574ft 131kts
18-Dec-20 15:48 32.833268 -117.192562 282 3233ft 201kts
18-Dec-20 15:49 32.839425 -117.250611 285 6004ft 199kts
18-Dec-20 15:50 32.885648 -117.256954 12 5985ft 206kts
18-Dec-20 15:51 32.923542 -117.219162 65 7787ft 185kts
18-Dec-20 15:52 32.942360 -117.163928 62 10768ft 179kts
18-Dec-20 15:53 32.961356 -117.108839 62 13280ft 185kts
18-Dec-20 15:54 32.981267 -117.051120 61 15487ft 194kts
18-Dec-20 15:55 33.001749 -116.991597 61 17620ft 195kts
18-Dec-20 15:56 33.021569 -116.933854 59 19602ft 182kts
18-Dec-20 15:57 33.040802 -116.877980 59 21180ft 194kts
18-Dec-20 15:58 33.065380 -116.806446 61 21185ft 265kts
18-Dec-20 15:59 33.095050 -116.719405 62 21180ft 296kts
18-Dec-20 16:00 33.126605 -116.626717 62 21186ft 307kts
18-Dec-20 16:01 33.179430 -116.552589 31 21191ft 297kts
18-Dec-20 16:02 33.246235 -116.494148 32 21204ft 298kts
18-Dec-20 16:03 33.313282 -116.435761 32 21223ft 299kts
18-Dec-20 16:04 33.380468 -116.377161 32 21229ft 299kts
18-Dec-20 16:05 33.447579 -116.318515 32 21229ft 299kts
18-Dec-20 16:06 33.514704 -116.259745 32 21228ft 299kts
18-Dec-20 16:07 33.581823 -116.200867 32 21228ft 299kts
18-Dec-20 16:08 33.649415 -116.143272 31 21228ft 298kts
18-Dec-20 16:09 33.718276 -116.087923 30 21243ft 298kts
18-Dec-20 16:10 33.787072 -116.032659 30 21272ft 297kts
18-Dec-20 16:11 33.855887 -115.977250 30 21292ft 297kts
18-Dec-20 16:12 33.924558 -115.921844 30 21313ft 297kts
18-Dec-20 16:13 33.993260 -115.866319 30 21316ft 298kts
18-Dec-20 16:14 34.062051 -115.810605 30 21316ft 298kts
18-Dec-20 16:16 34.128414 -115.751035 37 21325ft 301kts
18-Dec-20 16:17 34.190114 -115.682473 38 21322ft 302kts
18-Dec-20 16:18 34.251504 -115.613403 38 21322ft 302kts
18-Dec-20 16:19 34.312915 -115.544135 38 21322ft 302kts
18-Dec-20 16:20 34.387247 -115.503119 18 21321ft 295kts
18-Dec-20 16:21 34.464323 -115.469336 17 21320ft 295kts
18-Dec-20 16:22 34.541634 -115.435644 17 21319ft 295kts
18-Dec-20 16:23 34.618816 -115.401937 17 21283ft 296kts
18-Dec-20 16:24 34.659444 -115.316982 59 20672ft 321kts
18-Dec-20 16:25 34.690637 -115.214712 65 19669ft 320kts
18-Dec-20 16:26 34.720058 -115.113783 66 18661ft 316kts
18-Dec-20 16:27 34.749367 -115.012937 66 17648ft 314kts
18-Dec-20 16:28 34.778218 -114.913431 66 16636ft 310kts
18-Dec-20 16:28 34.800460 -114.836240 65 15789ft 244kts
18-Dec-20 16:30 34.822808 -114.758839 65 14161ft 193kts
18-Dec-20 16:31 34.840387 -114.697709 65 12652ft 190kts
18-Dec-20 16:32 34.860809 -114.640282 36 11144ft 177kts
18-Dec-20 16:32 34.889683 -114.607767 37 9944ft 150kts
18-Dec-20 16:34 34.916784 -114.578245 35 8141ft 95kts
18-Dec-20 16:35 34.936023 -114.557340 34 6629ft 92kts
18-Dec-20 16:36 34.957185 -114.545500 0 5118ft 86kts
18-Dec-20 16:36 34.976441 -114.546153 356 4094ft 79kts
18-Dec-20 16:37 34.999159 -114.547723 355 3603ft 83kts
18-Dec-20 16:38 35.022287 -114.549436 354 3121ft 83kts
18-Dec-20 16:39 35.045410 -114.551162 354 2654ft 83kts
18-Dec-20 16:40 35.068432 -114.552883 354 2197ft 82kts
18-Dec-20 16:41 35.091313 -114.554592 354 1755ft 82kts
18-Dec-20 16:42 35.113602 -114.556258 353 1332ft 82kts
18-Dec-20 16:43 35.134640 -114.557910 353 919ft 74kts
18-Dec-20 16:44 35.150278 -114.559009 357 705ft 26kts
18-Dec-20 16:45 35.151319 -114.558187 85 705ft 0kts
18-Dec-20 16:46 35.154622 -114.557944 355 705ft 19kts
18-Dec-20 16:47 35.155687 -114.556030 333 705ft 1kts
18-Dec-20 16:48 35.155689 -114.556131 261 705ft 0kts
18-Dec-20 16:49 35.155689 -114.556131 261 705ft 0kts
18-Dec-20 16:50 35.155689 -114.556131 261 705ft 0kts

Navigation Log

Ident Type
Flight plan parsing failed, navigation log unavailable